createdAt,value
2018-07-15T00:00:45.615Z,83.75
2018-07-15T00:01:45.620Z,83.94
2018-07-15T00:02:45.621Z,84.61
2018-07-15T00:03:45.661Z,84.38
2018-07-15T00:04:45.673Z,84.52
2018-07-15T00:05:45.692Z,84.48
2018-07-15T00:06:45.725Z,84.71
2018-07-15T00:07:47.745Z,84.52
2018-07-15T00:08:45.751Z,84.38
2018-07-15T00:09:45.775Z,84.58
2018-07-15T00:10:45.808Z,84.77
2018-07-15T00:11:45.842Z,84.95
2018-07-15T00:12:45.843Z,84.95
2018-07-15T00:13:45.884Z,85.05
2018-07-15T00:14:45.877Z,84.38
2018-07-15T00:15:45.894Z,85.63
2018-07-15T00:16:45.955Z,84.95
2018-07-15T00:17:45.942Z,85.63
2018-07-15T00:18:45.960Z,85.05
2018-07-15T00:19:47.000Z,85.34
2018-07-15T00:20:45.999Z,85.15
2018-07-15T00:21:47.022Z,84.77
2018-07-15T00:22:46.041Z,85.25
2018-07-15T00:23:46.077Z,85.82
2018-07-15T00:24:46.075Z,85.72
2018-07-15T00:25:46.111Z,85.72
2018-07-15T00:26:46.153Z,85.92
2018-07-15T00:27:46.139Z,85.63
2018-07-15T00:28:46.159Z,85.63
2018-07-15T00:29:47.194Z,85.97
2018-07-15T00:30:46.197Z,86.35
2018-07-15T00:31:46.242Z,86.07
2018-07-15T00:32:46.240Z,86.49
2018-07-15T00:33:46.297Z,86.78
2018-07-15T00:34:46.277Z,86.74
2018-07-15T00:35:47.331Z,86.45
2018-07-15T00:36:46.327Z,86.45
2018-07-15T00:37:47.361Z,86.93
2018-07-15T00:38:46.376Z,87.21
2018-07-15T00:39:46.394Z,87.31
2018-07-15T00:40:46.417Z,87.41
2018-07-15T00:41:46.440Z,87.50
2018-07-15T00:42:46.460Z,87.41
2018-07-15T00:43:46.480Z,87.50
2018-07-15T00:44:46.492Z,87.79
2018-07-15T00:45:46.513Z,87.98
2018-07-15T00:46:46.534Z,88.17
2018-07-15T00:47:46.561Z,88.08
2018-07-15T00:48:46.593Z,87.98
2018-07-15T00:49:46.598Z,88.08
2018-07-15T00:50:46.606Z,87.74
2018-07-15T00:51:46.655Z,88.32
2018-07-15T00:52:46.682Z,88.17
2018-07-15T00:53:46.677Z,88.42
2018-07-15T00:54:46.746Z,88.27
2018-07-15T00:55:46.722Z,87.94
2018-07-15T00:56:46.743Z,88.03
2018-07-15T00:57:46.747Z,88.03
2018-07-15T00:58:46.781Z,88.61
2018-07-15T00:59:46.812Z,88.80
2018-07-15T01:00:46.830Z,88.23
2018-07-15T01:01:46.844Z,88.61
2018-07-15T01:02:46.867Z,88.61
2018-07-15T01:03:46.905Z,88.70
2018-07-15T01:04:46.912Z,88.23
2018-07-15T01:05:46.920Z,88.32
2018-07-15T01:06:46.958Z,88.42
2018-07-15T01:07:46.971Z,88.61
2018-07-15T01:08:46.989Z,88.32
2018-07-15T01:09:47.015Z,88.80
2018-07-15T01:10:47.044Z,88.61
2018-07-15T01:11:47.047Z,88.99
2018-07-15T01:12:47.068Z,88.90
2018-07-15T01:13:47.078Z,89.18
2018-07-15T01:14:47.124Z,89.09
2018-07-15T01:15:47.121Z,89.28
2018-07-15T01:16:47.168Z,89.09
2018-07-15T01:17:47.175Z,89.57
2018-07-15T01:18:47.197Z,89.76
2018-07-15T01:19:47.230Z,89.95
2018-07-15T01:20:47.232Z,90.05
2018-07-15T01:21:47.247Z,89.76
2018-07-15T01:22:47.275Z,89.95
2018-07-15T01:23:47.301Z,90.14
2018-07-15T01:24:47.328Z,89.86
2018-07-15T01:25:47.336Z,89.66
2018-07-15T01:26:47.384Z,89.66
2018-07-15T01:27:47.391Z,89.47
2018-07-15T01:28:47.393Z,90.05
2018-07-15T01:29:47.419Z,90.23
2018-07-15T01:30:47.448Z,89.86
2018-07-15T01:31:47.458Z,89.95
2018-07-15T01:32:47.478Z,90.62
2018-07-15T01:33:47.483Z,90.23
2018-07-15T01:34:47.517Z,90.33
2018-07-15T01:35:47.542Z,90.23
2018-07-15T01:36:47.553Z,90.81
2018-07-15T01:37:47.580Z,90.81
2018-07-15T01:38:47.613Z,90.62
2018-07-15T01:39:47.604Z,90.81
2018-07-15T01:40:47.650Z,90.72
2018-07-15T01:41:47.668Z,91.05
2018-07-15T01:42:47.686Z,91.05
2018-07-15T01:43:47.692Z,91.34
2018-07-15T01:44:47.732Z,91.25
2018-07-15T01:45:47.746Z,91.25
2018-07-15T01:46:47.789Z,91.53
2018-07-15T01:47:47.771Z,92.11
2018-07-15T01:48:47.787Z,91.82
2018-07-15T01:49:47.834Z,91.53
2018-07-15T01:50:47.845Z,91.92
2018-07-15T01:51:47.853Z,91.82
2018-07-15T01:52:47.908Z,91.72
2018-07-15T01:53:47.916Z,91.72
2018-07-15T01:54:47.927Z,91.63
2018-07-15T01:55:47.967Z,92.01
2018-07-15T01:56:47.972Z,92.21
2018-07-15T01:57:47.986Z,92.58
2018-07-15T01:58:48.006Z,92.49
2018-07-15T01:59:48.018Z,92.30
2018-07-15T02:00:48.056Z,92.21
2018-07-15T02:01:48.069Z,92.58
2018-07-15T02:02:48.112Z,92.78
2018-07-15T02:03:48.096Z,92.40
2018-07-15T02:04:48.130Z,92.78
2018-07-15T02:05:48.151Z,92.68
2018-07-15T02:06:48.172Z,92.58
2018-07-15T02:07:48.182Z,92.30
2018-07-15T02:08:48.222Z,92.49
2018-07-15T02:09:48.212Z,92.30
2018-07-15T02:10:48.259Z,92.87
2018-07-15T02:11:48.266Z,92.58
2018-07-15T02:12:48.294Z,92.68
2018-07-15T02:13:48.299Z,92.87
2018-07-15T02:14:48.320Z,93.07
2018-07-15T02:15:48.333Z,92.92
2018-07-15T02:16:48.373Z,93.35
2018-07-15T02:17:48.384Z,93.12
2018-07-15T02:18:48.414Z,93.30
2018-07-15T02:19:48.424Z,93.21
2018-07-15T02:20:48.448Z,93.50
2018-07-15T02:21:48.455Z,93.30
2018-07-15T02:22:48.488Z,92.92
2018-07-15T02:23:48.499Z,93.30
2018-07-15T02:24:48.533Z,93.50
2018-07-15T02:25:48.538Z,93.12
2018-07-15T02:26:48.575Z,94.07
2018-07-15T02:27:48.596Z,93.88
2018-07-15T02:28:48.601Z,93.79
2018-07-15T02:29:48.625Z,93.98
2018-07-15T02:30:48.645Z,94.07
2018-07-15T02:31:48.670Z,94.17
2018-07-15T02:32:48.685Z,94.07
2018-07-15T02:33:48.703Z,94.07
2018-07-15T02:34:48.731Z,94.36
2018-07-15T02:35:48.737Z,94.45
2018-07-15T02:36:48.911Z,95.12
2018-07-15T02:37:48.776Z,94.93
2018-07-15T02:38:48.799Z,95.31
2018-07-15T02:39:48.821Z,95.22
2018-07-15T02:40:48.853Z,94.74
2018-07-15T02:41:48.875Z,94.93
2018-07-15T02:42:48.884Z,95.22
2018-07-15T02:43:48.919Z,95.03
2018-07-15T02:44:48.934Z,94.84
2018-07-15T02:45:48.926Z,95.03
2018-07-15T02:46:48.997Z,94.84
2018-07-15T02:47:48.993Z,94.74
2018-07-15T02:48:49.000Z,94.74
2018-07-15T02:49:49.008Z,95.17
2018-07-15T02:50:49.040Z,95.12
2018-07-15T02:51:49.053Z,94.93
2018-07-15T02:52:49.086Z,94.98
2018-07-15T02:53:49.088Z,95.84
2018-07-15T02:54:49.125Z,95.75
2018-07-15T02:55:49.144Z,95.65
2018-07-15T02:56:49.176Z,95.46
2018-07-15T02:57:49.192Z,95.56
2018-07-15T02:58:49.225Z,95.75
2018-07-15T02:59:49.217Z,95.94
2018-07-15T03:00:49.239Z,95.84
2018-07-15T03:01:49.258Z,95.94
2018-07-15T03:02:49.274Z,95.94
2018-07-15T03:03:49.296Z,96.03
2018-07-15T03:04:49.318Z,96.51
2018-07-15T03:05:49.357Z,95.84
2018-07-15T03:06:49.364Z,96.32
2018-07-15T03:07:49.384Z,96.32
2018-07-15T03:08:49.420Z,96.13
2018-07-15T03:09:49.417Z,96.70
2018-07-15T03:10:49.432Z,96.70
2018-07-15T03:11:49.449Z,96.32
2018-07-15T03:12:49.485Z,96.70
2018-07-15T03:13:49.497Z,97.56
2018-07-15T03:14:49.521Z,97.28
2018-07-15T03:15:49.553Z,97.18
2018-07-15T03:16:49.570Z,97.08
2018-07-15T03:17:49.573Z,97.08
2018-07-15T03:18:49.629Z,97.18
2018-07-15T03:19:49.638Z,97.18
2018-07-15T03:20:49.645Z,96.89
2018-07-15T03:21:49.650Z,97.08
2018-07-15T03:22:49.675Z,96.89
2018-07-15T03:23:49.720Z,96.99
2018-07-15T03:24:49.712Z,97.08
2018-07-15T03:25:49.740Z,97.37
2018-07-15T03:26:49.751Z,97.37
2018-07-15T03:27:49.775Z,97.08
2018-07-15T03:28:49.808Z,97.42
2018-07-15T03:29:49.817Z,98.38
2018-07-15T03:30:49.827Z,98.18
2018-07-15T03:31:49.860Z,98.38
2018-07-15T03:32:49.894Z,98.38
2018-07-15T03:33:49.882Z,98.43
2018-07-15T03:34:49.923Z,97.56
2018-07-15T03:35:49.920Z,97.85
2018-07-15T03:36:49.957Z,97.71
2018-07-15T03:37:49.965Z,98.18
2018-07-15T03:38:50.009Z,98.18
2018-07-15T03:39:50.085Z,98.18
2018-07-15T03:40:50.039Z,98.24
2018-07-15T03:41:50.050Z,97.95
2018-07-15T03:42:50.087Z,97.99
2018-07-15T03:43:50.084Z,98.14
2018-07-15T03:44:50.134Z,98.09
2018-07-15T03:45:50.138Z,98.33
2018-07-15T03:46:50.138Z,98.24
2018-07-15T03:47:50.166Z,97.90
2018-07-15T03:48:50.211Z,98.18
2018-07-15T03:49:50.230Z,98.09
2018-07-15T03:50:50.227Z,97.90
2018-07-15T03:51:50.254Z,98.28
2018-07-15T03:52:50.282Z,98.09
2018-07-15T03:53:50.292Z,98.28
2018-07-15T03:54:50.307Z,98.57
2018-07-15T03:55:50.318Z,98.95
2018-07-15T03:56:50.356Z,98.75
2018-07-15T03:57:50.355Z,98.47
2018-07-15T03:58:50.387Z,98.57
2018-07-15T03:59:50.400Z,98.66
2018-07-15T04:00:50.542Z,98.09
2018-07-15T04:01:50.450Z,98.47
2018-07-15T04:02:50.462Z,98.66
2018-07-15T04:03:50.467Z,98.95
2018-07-15T04:04:50.522Z,99.14
2018-07-15T04:05:50.512Z,98.47
2018-07-15T04:06:50.549Z,98.66
2018-07-15T04:07:50.556Z,98.85
2018-07-15T04:08:50.628Z,98.95
2018-07-15T04:09:50.636Z,98.75
2018-07-15T04:10:50.622Z,98.95
2018-07-15T04:11:50.641Z,98.85
2018-07-15T04:12:50.656Z,98.33
2018-07-15T04:13:50.671Z,98.43
2018-07-15T04:14:50.710Z,98.43
2018-07-15T04:15:50.711Z,98.61
2018-07-15T04:16:50.741Z,98.24
2018-07-15T04:17:50.760Z,97.95
2018-07-15T04:18:50.774Z,98.14
2018-07-15T04:19:50.782Z,98.04
2018-07-15T04:20:50.807Z,98.52
2018-07-15T04:21:50.823Z,98.04
2018-07-15T04:22:50.849Z,98.04
2018-07-15T04:23:50.868Z,97.85
2018-07-15T04:24:50.901Z,97.95
2018-07-15T04:25:50.922Z,97.95
2018-07-15T04:26:50.939Z,98.14
2018-07-15T04:27:50.938Z,98.24
2018-07-15T04:28:50.956Z,98.24
2018-07-15T04:29:50.972Z,97.95
2018-07-15T04:30:51.014Z,98.71
2018-07-15T04:31:51.032Z,98.61
2018-07-15T04:32:51.050Z,98.33
2018-07-15T04:33:51.049Z,97.66
2018-07-15T04:34:51.083Z,97.85
2018-07-15T04:35:51.083Z,98.04
2018-07-15T04:36:51.127Z,98.43
2018-07-15T04:37:51.140Z,98.43
2018-07-15T04:38:51.172Z,97.75
2018-07-15T04:39:51.178Z,98.14
2018-07-15T04:40:51.206Z,98.61
2018-07-15T04:41:51.227Z,98.24
2018-07-15T04:42:51.282Z,97.95
2018-07-15T04:43:51.332Z,98.04
2018-07-15T04:44:51.283Z,97.95
2018-07-15T04:45:51.280Z,98.14
2018-07-15T04:46:51.312Z,97.80
2018-07-15T04:47:51.334Z,97.28
2018-07-15T04:48:51.366Z,97.52
2018-07-15T04:49:51.372Z,97.42
2018-07-15T04:50:51.381Z,97.28
2018-07-15T04:51:51.405Z,97.42
2018-07-15T04:52:51.444Z,97.04
2018-07-15T04:53:51.446Z,97.23
2018-07-15T04:54:51.477Z,97.13
2018-07-15T04:55:51.485Z,96.84
2018-07-15T04:56:51.509Z,96.75
2018-07-15T04:57:51.539Z,96.18
2018-07-15T04:58:51.563Z,95.94
2018-07-15T04:59:51.566Z,95.46
2018-07-15T05:00:51.585Z,94.79
2018-07-15T05:01:51.628Z,95.07
2018-07-15T05:02:51.622Z,94.50
2018-07-15T05:03:51.647Z,94.12
2018-07-15T05:04:51.681Z,93.59
2018-07-15T05:05:51.676Z,93.40
2018-07-15T05:06:51.686Z,93.49
2018-07-15T05:07:51.726Z,93.59
2018-07-15T05:08:51.769Z,93.30
2018-07-15T05:09:51.756Z,93.21
2018-07-15T05:10:51.780Z,93.59
2018-07-15T05:11:51.818Z,93.59
2018-07-15T05:12:52.822Z,93.40
2018-07-15T05:13:51.843Z,93.59
2018-07-15T05:14:51.883Z,93.59
2018-07-15T05:15:51.877Z,92.92
2018-07-15T05:16:51.897Z,93.40
2018-07-15T05:17:51.902Z,93.40
2018-07-15T05:18:51.926Z,93.49
2018-07-15T05:19:51.942Z,93.02
2018-07-15T05:20:51.975Z,93.11
2018-07-15T05:21:51.980Z,93.49
2018-07-15T05:22:52.018Z,93.49
2018-07-15T05:23:52.044Z,93.40
2018-07-15T05:24:52.106Z,92.73
2018-07-15T05:25:52.063Z,93.02
2018-07-15T05:26:52.091Z,93.02
2018-07-15T05:27:52.105Z,92.54
2018-07-15T05:28:52.135Z,92.63
2018-07-15T05:29:52.159Z,92.30
2018-07-15T05:30:52.162Z,92.68
2018-07-15T05:31:52.191Z,92.63
2018-07-15T05:32:52.213Z,92.87
2018-07-15T05:33:52.209Z,92.44
2018-07-15T05:34:52.242Z,92.01
2018-07-15T05:35:52.270Z,92.20
2018-07-15T05:36:52.282Z,92.20
2018-07-15T05:37:52.316Z,91.82
2018-07-15T05:38:52.329Z,92.01
2018-07-15T05:39:52.335Z,92.10
2018-07-15T05:40:52.372Z,91.72
2018-07-15T05:41:52.381Z,91.72
2018-07-15T05:42:52.407Z,91.72
2018-07-15T05:43:52.417Z,91.34
2018-07-15T05:44:52.443Z,91.82
2018-07-15T05:45:52.453Z,91.53
2018-07-15T05:46:52.469Z,91.53
2018-07-15T05:47:52.482Z,91.43
2018-07-15T05:48:52.537Z,91.38
2018-07-15T05:49:52.527Z,90.81
2018-07-15T05:50:52.540Z,90.76
2018-07-15T05:51:52.575Z,90.81
2018-07-15T05:52:52.587Z,91.09
2018-07-15T05:53:52.605Z,90.14
2018-07-15T05:54:52.649Z,90.42
2018-07-15T05:55:52.656Z,90.42
2018-07-15T05:56:52.659Z,89.85
2018-07-15T05:57:52.707Z,90.33
2018-07-15T05:58:52.720Z,89.75
2018-07-15T05:59:52.737Z,89.47
2018-07-15T06:00:52.749Z,89.18
2018-07-15T06:01:52.748Z,89.27
2018-07-15T06:02:52.797Z,89.37
2018-07-15T06:03:52.796Z,89.47
2018-07-15T06:04:52.820Z,89.56
2018-07-15T06:05:52.826Z,89.32
2018-07-15T06:06:52.857Z,88.74
2018-07-15T06:07:52.883Z,88.74
2018-07-15T06:08:52.966Z,89.51
2018-07-15T06:09:52.918Z,89.03
2018-07-15T06:10:52.972Z,89.12
2018-07-15T06:11:52.940Z,88.84
2018-07-15T06:12:52.970Z,88.93
2018-07-15T06:13:53.107Z,87.98
2018-07-15T06:14:53.022Z,88.26
2018-07-15T06:15:53.129Z,88.35
2018-07-15T06:16:53.061Z,88.17
2018-07-15T06:17:53.155Z,88.26
2018-07-15T06:18:53.083Z,88.31
2018-07-15T06:19:53.138Z,88.21
2018-07-15T06:20:53.134Z,87.54
2018-07-15T06:21:53.148Z,87.73
2018-07-15T06:22:53.190Z,87.35
2018-07-15T06:23:53.277Z,87.63
2018-07-15T06:24:53.192Z,86.87
2018-07-15T06:25:53.246Z,87.25
2018-07-15T06:26:53.313Z,86.38
2018-07-15T06:27:53.261Z,86.77
2018-07-15T06:28:53.338Z,86.58
2018-07-15T06:29:53.280Z,86.58
2018-07-15T06:30:54.392Z,86.38
2018-07-15T06:31:53.380Z,86.58
2018-07-15T06:32:53.453Z,86.00
2018-07-15T06:33:53.397Z,86.00
2018-07-15T06:34:53.449Z,86.19
2018-07-15T06:35:53.420Z,85.33
2018-07-15T06:36:53.435Z,85.91
2018-07-15T06:37:53.478Z,85.75
2018-07-15T06:38:53.593Z,86.24
2018-07-15T06:39:53.508Z,86.14
2018-07-15T06:40:53.596Z,85.47
2018-07-15T06:41:53.531Z,85.37
2018-07-15T06:42:54.628Z,85.08
2018-07-15T06:43:53.578Z,84.55
2018-07-15T06:44:53.613Z,84.26
2018-07-15T06:45:53.613Z,83.78
2018-07-15T06:46:53.718Z,83.69
2018-07-15T06:47:53.627Z,84.07
2018-07-15T06:48:53.729Z,83.83
2018-07-15T06:49:53.718Z,83.73
2018-07-15T06:50:53.717Z,83.73
2018-07-15T06:51:53.725Z,83.15
2018-07-15T06:52:53.774Z,82.86
2018-07-15T06:53:53.782Z,81.90
2018-07-15T06:54:53.783Z,81.99
2018-07-15T06:55:53.897Z,82.38
2018-07-15T06:56:53.832Z,81.61
2018-07-15T06:57:53.885Z,81.71
2018-07-15T06:58:53.881Z,81.23
2018-07-15T06:59:53.953Z,81.32
2018-07-15T07:00:53.905Z,81.42
2018-07-15T07:01:54.080Z,82.09
2018-07-15T07:02:53.932Z,81.52
2018-07-15T07:03:54.084Z,81.99
2018-07-15T07:04:53.958Z,82.86
2018-07-15T07:05:54.141Z,82.19
2018-07-15T07:06:54.016Z,81.99
2018-07-15T07:07:54.107Z,81.04
2018-07-15T07:08:54.065Z,80.65
2018-07-15T07:09:54.197Z,80.46
2018-07-15T07:10:54.143Z,79.69
2018-07-15T07:11:54.191Z,80.75
2018-07-15T07:12:54.146Z,80.84
2018-07-15T07:13:54.149Z,80.65
2018-07-15T07:14:54.156Z,80.65
2018-07-15T07:15:54.227Z,80.79
2018-07-15T07:16:54.198Z,81.56
2018-07-15T07:17:54.230Z,81.46
2018-07-15T07:18:54.257Z,80.50
2018-07-15T07:19:54.389Z,80.11
2018-07-15T07:20:54.276Z,80.50
2018-07-15T07:21:54.349Z,79.92
2018-07-15T07:22:54.305Z,79.44
2018-07-15T07:23:54.384Z,78.96
2018-07-15T07:24:54.360Z,78.09
2018-07-15T07:25:54.495Z,77.90
2018-07-15T07:26:54.386Z,77.42
2018-07-15T07:27:54.524Z,77.33
2018-07-15T07:28:54.487Z,77.23
2018-07-15T07:29:54.586Z,77.04
2018-07-15T07:30:54.478Z,76.46
2018-07-15T07:31:54.538Z,75.82
2018-07-15T07:32:54.495Z,76.01
2018-07-15T07:33:54.528Z,75.92
2018-07-15T07:34:54.530Z,75.82
2018-07-15T07:35:54.734Z,75.98
2018-07-15T07:36:54.632Z,76.31
2018-07-15T07:37:54.681Z,76.17
2018-07-15T07:38:54.620Z,76.11
2018-07-15T07:39:54.677Z,75.92
2018-07-15T07:40:54.676Z,76.31
2018-07-15T07:41:54.694Z,76.01
2018-07-15T07:42:54.712Z,76.11
2018-07-15T07:43:54.839Z,76.01
2018-07-15T07:44:54.754Z,75.34
2018-07-15T07:45:54.816Z,75.05
2018-07-15T07:46:54.784Z,74.67
2018-07-15T07:47:54.817Z,74.86
2018-07-15T07:48:54.811Z,74.67
2018-07-15T07:49:54.842Z,75.05
2018-07-15T07:50:54.854Z,74.67
2018-07-15T07:51:54.956Z,74.86
2018-07-15T07:52:54.911Z,75.34
2018-07-15T07:53:54.975Z,74.61
2018-07-15T07:54:54.932Z,74.76
2018-07-15T07:55:54.994Z,74.51
2018-07-15T07:56:54.961Z,73.16
2018-07-15T07:57:55.125Z,72.97
2018-07-15T07:58:54.996Z,72.59
2018-07-15T07:59:55.121Z,72.20
2018-07-15T08:00:55.026Z,72.30
2018-07-15T08:01:55.086Z,72.30
2018-07-15T08:02:55.111Z,72.01
2018-07-15T08:03:55.101Z,71.72
2018-07-15T08:04:55.106Z,72.49
2018-07-15T08:05:55.167Z,72.39
2018-07-15T08:06:55.182Z,72.97
2018-07-15T08:07:55.189Z,72.88
2018-07-15T08:08:55.195Z,72.01
2018-07-15T08:09:55.254Z,71.62
2018-07-15T08:10:55.237Z,71.81
2018-07-15T08:11:55.257Z,71.81
2018-07-15T08:12:55.290Z,72.11
2018-07-15T08:13:55.306Z,71.81
2018-07-15T08:14:55.303Z,72.49
2018-07-15T08:15:55.448Z,72.43
2018-07-15T08:16:55.324Z,71.37
2018-07-15T08:17:55.460Z,71.28
2018-07-15T08:18:55.406Z,70.79
2018-07-15T08:19:55.507Z,71.08
2018-07-15T08:20:55.437Z,71.56
2018-07-15T08:21:55.515Z,72.14
2018-07-15T08:22:55.463Z,73.10
2018-07-15T08:23:55.666Z,72.14
2018-07-15T08:24:55.751Z,71.56
2018-07-15T08:25:55.512Z,71.08
2018-07-15T08:26:55.552Z,70.79
2018-07-15T08:27:55.651Z,70.21
2018-07-15T08:28:55.567Z,68.48
2018-07-15T08:29:55.676Z,68.68
2018-07-15T08:30:55.614Z,68.42
2018-07-15T08:31:55.829Z,68.38
2018-07-15T08:32:55.647Z,68.32
2018-07-15T08:33:55.801Z,68.52
2018-07-15T08:34:55.732Z,68.61
2018-07-15T08:35:55.834Z,68.38
2018-07-15T08:36:55.726Z,68.32
2018-07-15T08:37:55.761Z,67.65
2018-07-15T08:38:55.759Z,68.13
2018-07-15T08:39:55.876Z,68.42
2018-07-15T08:40:55.817Z,68.71
2018-07-15T08:41:55.842Z,67.94
2018-07-15T08:42:55.892Z,67.36
2018-07-15T08:43:55.870Z,67.74
2018-07-15T08:44:55.888Z,67.65
2018-07-15T08:45:55.992Z,67.55
2018-07-15T08:46:55.962Z,66.69
2018-07-15T08:47:56.111Z,66.91
2018-07-15T08:48:55.955Z,67.36
2018-07-15T08:49:56.133Z,66.33
2018-07-15T08:50:55.988Z,65.66
2018-07-15T08:51:56.139Z,65.17
2018-07-15T08:52:56.042Z,65.17
2018-07-15T08:53:56.266Z,65.37
2018-07-15T08:54:56.093Z,64.89
2018-07-15T08:55:56.260Z,64.50
2018-07-15T08:56:56.110Z,64.31
2018-07-15T08:57:56.286Z,64.59
2018-07-15T08:58:56.157Z,64.31
2018-07-15T08:59:56.213Z,64.50
2018-07-15T09:00:56.186Z,63.34
2018-07-15T09:01:56.329Z,63.34
2018-07-15T09:02:56.235Z,64.11
2018-07-15T09:03:56.364Z,63.37
2018-07-15T09:04:56.265Z,64.72
2018-07-15T09:05:56.360Z,64.92
2018-07-15T09:06:56.341Z,64.53
2018-07-15T09:07:56.369Z,64.53
2018-07-15T09:08:56.371Z,63.67
2018-07-15T09:09:56.623Z,63.47
2018-07-15T09:10:56.406Z,62.41
2018-07-15T09:11:56.500Z,61.93
2018-07-15T09:12:56.424Z,62.31
2018-07-15T09:13:56.516Z,62.60
2018-07-15T09:14:56.502Z,62.12
2018-07-15T09:15:56.554Z,61.83
2018-07-15T09:16:56.549Z,60.80
2018-07-15T09:17:56.631Z,60.10
2018-07-15T09:18:56.555Z,60.77
2018-07-15T09:19:56.646Z,60.96
2018-07-15T09:20:56.613Z,60.19
2018-07-15T09:21:56.717Z,60.31
2018-07-15T09:22:56.628Z,59.83
2018-07-15T09:23:56.669Z,59.55
2018-07-15T09:24:56.680Z,58.97
2018-07-15T09:25:56.793Z,58.87
2018-07-15T09:26:56.728Z,58.58
2018-07-15T09:27:56.868Z,58.58
2018-07-15T09:28:56.747Z,58.19
2018-07-15T09:29:56.845Z,56.94
2018-07-15T09:30:56.804Z,57.42
2018-07-15T09:31:56.877Z,57.62
2018-07-15T09:32:56.835Z,59.83
2018-07-15T09:33:56.944Z,60.35
2018-07-15T09:34:56.920Z,60.06
2018-07-15T09:35:57.982Z,59.67
2018-07-15T09:36:56.947Z,59.67
2018-07-15T09:37:56.934Z,59.77
2018-07-15T09:38:57.029Z,60.25
2018-07-15T09:39:56.983Z,59.86
2018-07-15T09:40:57.009Z,59.58
2018-07-15T09:41:57.097Z,57.54
2018-07-15T09:42:57.066Z,56.00
2018-07-15T09:43:57.134Z,56.39
2018-07-15T09:44:57.094Z,56.41
2018-07-15T09:45:57.113Z,56.80
2018-07-15T09:46:57.110Z,55.83
2018-07-15T09:47:57.225Z,54.77
2018-07-15T09:48:57.146Z,55.16
2018-07-15T09:49:57.175Z,55.93
2018-07-15T09:50:58.718Z,56.71
2018-07-15T09:51:57.265Z,56.71
2018-07-15T09:52:57.280Z,55.74
2018-07-15T09:53:57.298Z,55.65
2018-07-15T09:54:57.304Z,55.35
2018-07-15T09:55:57.403Z,55.26
2018-07-15T09:56:57.350Z,54.77
2018-07-15T09:57:57.403Z,54.00
2018-07-15T09:58:57.358Z,54.10
2018-07-15T09:59:57.435Z,55.35
2018-07-15T10:00:57.463Z,53.64
2018-07-15T10:01:57.699Z,53.06
2018-07-15T10:02:57.474Z,53.64
2018-07-15T10:03:57.597Z,55.19
2018-07-15T10:04:57.468Z,54.03
2018-07-15T10:05:57.547Z,54.61
2018-07-15T10:06:57.511Z,55.51
2018-07-15T10:07:57.726Z,53.86
2018-07-15T10:08:57.563Z,53.47
2018-07-15T10:09:57.703Z,54.15
2018-07-15T10:10:57.607Z,52.99
2018-07-15T10:11:57.682Z,52.80
2018-07-15T10:12:57.646Z,53.19
2018-07-15T10:13:57.724Z,52.87
2018-07-15T10:14:57.727Z,52.12
2018-07-15T10:15:57.827Z,52.41
2018-07-15T10:16:57.730Z,52.12
2018-07-15T10:17:57.836Z,52.22
2018-07-15T10:18:57.819Z,51.93
2018-07-15T10:19:57.848Z,51.64
2018-07-15T10:20:57.810Z,52.12
2018-07-15T10:21:57.866Z,51.64
2018-07-15T10:22:57.849Z,51.83
2018-07-15T10:23:57.964Z,51.83
2018-07-15T10:24:57.985Z,51.06
2018-07-15T10:25:57.979Z,50.28
2018-07-15T10:26:57.938Z,49.80
2018-07-15T10:27:57.989Z,50.12
2018-07-15T10:28:57.973Z,50.21
2018-07-15T10:29:58.120Z,50.12
2018-07-15T10:30:58.033Z,49.54
2018-07-15T10:31:58.138Z,49.63
2018-07-15T10:32:58.068Z,49.73
2018-07-15T10:33:58.133Z,49.75
2018-07-15T10:34:58.106Z,50.04
2018-07-15T10:35:58.141Z,50.04
2018-07-15T10:36:58.155Z,51.01
2018-07-15T10:37:58.173Z,50.72
2018-07-15T10:38:58.225Z,50.65
2018-07-15T10:39:58.234Z,48.81
2018-07-15T10:40:58.255Z,48.52
2018-07-15T10:41:58.301Z,48.90
2018-07-15T10:42:58.307Z,48.81
2018-07-15T10:43:58.419Z,48.71
2018-07-15T10:44:58.336Z,48.13
2018-07-15T10:45:58.364Z,48.42
2018-07-15T10:46:58.380Z,47.19
2018-07-15T10:47:58.460Z,46.70
2018-07-15T10:48:58.454Z,47.47
2018-07-15T10:49:58.460Z,47.38
2018-07-15T10:50:58.473Z,47.67
2018-07-15T10:51:58.574Z,47.28
2018-07-15T10:52:58.595Z,46.99
2018-07-15T10:53:58.532Z,47.47
2018-07-15T10:54:58.578Z,47.69
2018-07-15T10:55:58.588Z,46.82
2018-07-15T10:56:58.592Z,46.33
2018-07-15T10:57:58.604Z,45.75
2018-07-15T10:58:58.627Z,45.37
2018-07-15T10:59:58.663Z,44.49
2018-07-15T11:00:58.705Z,44.59
2018-07-15T11:01:58.707Z,44.78
2018-07-15T11:02:58.736Z,43.72
2018-07-15T11:03:58.769Z,44.68
2018-07-15T11:04:58.798Z,44.59
2018-07-15T11:05:58.783Z,43.54
2018-07-15T11:06:58.811Z,43.64
2018-07-15T11:07:58.850Z,44.13
2018-07-15T11:08:58.857Z,43.64
2018-07-15T11:09:58.872Z,42.96
2018-07-15T11:10:58.891Z,42.96
2018-07-15T11:11:58.941Z,43.26
2018-07-15T11:12:58.928Z,42.86
2018-07-15T11:13:58.999Z,44.13
2018-07-15T11:14:58.993Z,43.16
2018-07-15T11:15:59.017Z,42.48
2018-07-15T11:16:59.023Z,42.09
2018-07-15T11:17:59.052Z,42.40
2018-07-15T11:18:59.068Z,43.27
2018-07-15T11:20:00.091Z,42.21
2018-07-15T11:20:59.096Z,42.60
2018-07-15T11:21:59.142Z,42.50
2018-07-15T11:22:59.161Z,42.11
2018-07-15T11:23:59.191Z,42.21
2018-07-15T11:24:59.193Z,42.86
2018-07-15T11:25:59.293Z,44.13
2018-07-15T11:26:59.247Z,45.00
2018-07-15T11:27:59.289Z,45.80
2018-07-15T11:28:59.295Z,44.54
2018-07-15T11:29:59.321Z,44.05
2018-07-15T11:30:59.445Z,44.24
2018-07-15T11:31:59.365Z,44.34
2018-07-15T11:32:59.379Z,43.08
2018-07-15T11:33:59.405Z,42.09
2018-07-15T11:34:59.444Z,41.41
2018-07-15T11:35:59.457Z,41.68
2018-07-15T11:36:59.506Z,42.29
2018-07-15T11:37:59.521Z,42.38
2018-07-15T11:38:59.586Z,42.36
2018-07-15T11:39:59.547Z,42.77
2018-07-15T11:40:59.539Z,43.64
2018-07-15T11:41:59.591Z,43.93
2018-07-15T11:42:59.615Z,44.71
2018-07-15T11:43:59.624Z,44.81
2018-07-15T11:44:59.660Z,44.23
2018-07-15T11:45:59.693Z,44.71
2018-07-15T11:46:59.692Z,44.13
2018-07-15T11:47:59.728Z,42.86
2018-07-15T11:48:59.745Z,42.40
2018-07-15T11:49:59.760Z,42.40
2018-07-15T11:50:59.800Z,42.60
2018-07-15T11:51:59.803Z,43.27
2018-07-15T11:52:59.830Z,43.57
2018-07-15T11:53:59.852Z,43.76
2018-07-15T11:54:59.862Z,42.99
2018-07-15T11:55:59.894Z,42.99
2018-07-15T11:56:59.927Z,43.08
2018-07-15T11:57:59.939Z,43.37
2018-07-15T11:58:59.959Z,43.08
2018-07-15T11:59:59.979Z,42.79
2018-07-15T12:01:00.058Z,42.50
2018-07-15T12:02:00.184Z,41.82
2018-07-15T12:03:00.079Z,41.51
2018-07-15T12:04:00.092Z,41.61
2018-07-15T12:05:00.090Z,41.70
2018-07-15T12:06:00.119Z,41.22
2018-07-15T12:07:00.131Z,41.51
2018-07-15T12:08:00.173Z,41.80
2018-07-15T12:09:00.183Z,41.99
2018-07-15T12:10:00.226Z,42.48
2018-07-15T12:11:00.312Z,42.29
2018-07-15T12:12:00.254Z,42.96
2018-07-15T12:13:00.268Z,43.37
2018-07-15T12:14:00.306Z,43.86
2018-07-15T12:15:00.334Z,42.99
2018-07-15T12:16:00.356Z,41.63
2018-07-15T12:17:00.375Z,41.63
2018-07-15T12:18:00.431Z,42.21
2018-07-15T12:19:00.420Z,41.82
2018-07-15T12:20:00.450Z,40.87
2018-07-15T12:21:00.450Z,40.46
2018-07-15T12:22:00.509Z,40.56
2018-07-15T12:23:00.518Z,41.72
2018-07-15T12:24:00.544Z,41.72
2018-07-15T12:25:00.555Z,41.82
2018-07-15T12:26:00.589Z,42.02
2018-07-15T12:27:00.681Z,42.50
2018-07-15T12:28:00.612Z,41.45
2018-07-15T12:29:00.624Z,41.84
2018-07-15T12:30:00.769Z,41.84
2018-07-15T12:31:00.689Z,41.36
2018-07-15T12:32:00.729Z,40.97
2018-07-15T12:33:00.723Z,41.06
2018-07-15T12:34:00.765Z,41.64
2018-07-15T12:35:00.788Z,40.48
2018-07-15T12:36:00.824Z,40.48
2018-07-15T12:37:00.838Z,40.48
2018-07-15T12:38:00.862Z,40.58
2018-07-15T12:39:00.869Z,40.29
2018-07-15T12:40:00.892Z,40.58
2018-07-15T12:41:00.913Z,40.58
2018-07-15T12:42:00.947Z,40.39
2018-07-15T12:43:00.965Z,40.19
2018-07-15T12:44:01.391Z,39.12
2018-07-15T12:45:01.020Z,39.22
2018-07-15T12:46:01.046Z,39.22
2018-07-15T12:47:01.058Z,39.22
2018-07-15T12:48:01.073Z,38.93
2018-07-15T12:49:01.097Z,39.90
2018-07-15T12:50:01.132Z,40.60
2018-07-15T12:51:01.155Z,39.82
2018-07-15T12:52:02.237Z,38.75
2018-07-15T12:53:01.184Z,38.75